Time;durP1;ratioP1;P1;durP2;ratioP2;P2;SDS_P1;SDS_P2;PMS_P1;PMS_P2;Temp;Humidity;BMP_temperature;BMP_pressure;BME280_temperature;BME280_humidity;BME280_pressure;Samples;Min_cycle;Max_cycle;Signal;HPM_P1;HPM_P2
2022/04/25 00:00:34;;;;;;;19.98;15.30;;;10.10;99.90;;;;;;5053507;28;20025;-72
2022/04/25 00:03:01;;;;;;;26.67;16.73;;;10.10;99.90;;;;;;5035540;28;20032;-72
2022/04/25 00:05:26;;;;;;;28.27;19.33;;;10.10;99.90;;;;;;5053556;28;20108;-73
2022/04/25 00:07:52;;;;;;;34.08;20.17;;;10.10;99.90;;;;;;5053329;28;20455;-72
2022/04/25 00:10:18;;;;;;;37.63;25.50;;;10.10;99.90;;;;;;5053343;28;20021;-71
2022/04/25 00:12:43;;;;;;;40.40;26.35;;;10.10;99.90;;;;;;5035464;28;20475;-73
2022/04/25 00:15:10;;;;;;;37.10;26.20;;;10.10;99.90;;;;;;5053197;28;20100;-73
2022/04/25 00:17:35;;;;;;;37.30;24.58;;;10.10;99.90;;;;;;5053766;28;20025;-72
2022/04/25 00:20:01;;;;;;;40.13;25.83;;;10.10;99.90;;;;;;5053207;28;20071;-71
2022/04/25 00:22:27;;;;;;;42.63;28.08;;;10.20;99.90;;;;;;5053166;28;20395;-72
2022/04/25 00:24:52;;;;;;;41.00;27.25;;;10.20;99.90;;;;;;5053071;28;20518;-73
2022/04/25 00:27:18;;;;;;;41.30;26.65;;;10.20;99.90;;;;;;5052672;28;20064;-72
2022/04/25 00:29:44;;;;;;;38.22;25.52;;;10.20;99.90;;;;;;5053083;28;20022;-73
2022/04/25 00:32:10;;;;;;;34.72;24.88;;;10.20;99.90;;;;;;5035952;28;20049;-72
2022/04/25 00:34:36;;;;;;;32.53;24.05;;;10.30;99.90;;;;;;5053301;28;20025;-72
2022/04/25 00:37:02;;;;;;;35.00;24.38;;;10.20;99.90;;;;;;5035100;28;20114;-72
2022/04/25 00:39:28;;;;;;;36.38;22.85;;;10.30;99.90;;;;;;5052897;28;20021;-72
2022/04/25 00:41:55;;;;;;;30.35;22.33;;;10.30;99.90;;;;;;5052937;28;20025;-72
2022/04/25 00:44:20;;;;;;;33.45;23.52;;;10.30;99.90;;;;;;5052877;28;20093;-72
2022/04/25 00:46:48;;;;;;;31.10;21.88;;;10.30;99.90;;;;;;5053205;28;20454;-72
2022/04/25 00:49:14;;;;;;;34.42;23.25;;;10.30;99.90;;;;;;5038050;28;20028;-70
2022/04/25 00:51:40;;;;;;;34.15;22.52;;;10.40;99.90;;;;;;5056989;28;20143;-72
2022/04/25 00:54:07;;;;;;;29.88;21.23;;;10.40;99.90;;;;;;5056704;28;20398;-72
2022/04/25 00:56:35;;;;;;;31.10;21.60;;;10.40;99.90;;;;;;5056934;28;20049;-72
2022/04/25 00:59:02;;;;;;;26.55;20.67;;;10.40;99.90;;;;;;5056867;28;20061;-71
2022/04/25 01:01:28;;;;;;;30.92;21.10;;;10.50;99.90;;;;;;5056834;28;20083;-72
2022/04/25 01:03:54;;;;;;;28.55;20.70;;;10.50;99.90;;;;;;5057008;28;20029;-72
2022/04/25 01:06:20;;;;;;;28.77;21.00;;;10.40;99.90;;;;;;5056632;28;20383;-72
2022/04/25 01:08:46;;;;;;;31.00;21.40;;;10.30;99.90;;;;;;5056704;28;20096;-72
2022/04/25 01:11:13;;;;;;;31.13;21.85;;;10.40;99.90;;;;;;5056644;28;20021;-71
2022/04/25 01:13:39;;;;;;;28.85;20.92;;;10.40;99.90;;;;;;5056583;28;20391;-72
2022/04/25 01:16:05;;;;;;;28.65;21.08;;;10.40;99.90;;;;;;5056511;28;20032;-72
2022/04/25 01:18:30;;;;;;;29.92;21.67;;;10.40;99.90;;;;;;5056523;28;20450;-72
2022/04/25 01:20:57;;;;;;;30.52;21.30;;;10.40;99.90;;;;;;5056440;28;20021;-72
2022/04/25 01:28:52;;;;;;;33.47;21.90;;;10.50;99.90;;;;;;5056628;28;20539;-72
2022/04/25 01:31:18;;;;;;;26.23;20.25;;;10.40;99.90;;;;;;5056252;28;20025;-72
2022/04/25 01:33:44;;;;;;;30.10;20.23;;;10.40;99.90;;;;;;5056210;28;20052;-71
2022/04/25 01:36:10;;;;;;;29.33;19.65;;;10.40;99.90;;;;;;5056747;28;20021;-72
2022/04/25 01:38:36;;;;;;;29.52;20.10;;;10.50;99.90;;;;;;5038269;28;20492;-72
2022/04/25 01:41:02;;;;;;;25.05;18.02;;;10.40;99.90;;;;;;5038251;28;20028;-72
2022/04/25 01:43:27;;;;;;;27.17;18.27;;;10.40;99.90;;;;;;5056348;28;20028;-71
2022/04/25 01:45:53;;;;;;;24.52;17.50;;;10.40;99.90;;;;;;5056179;28;20430;-71
2022/04/25 01:48:19;;;;;;;25.67;17.95;;;10.50;99.90;;;;;;5055964;28;20028;-71
2022/04/25 01:50:44;;;;;;;24.52;17.27;;;10.50;99.90;;;;;;5056216;28;20435;-72
2022/04/25 01:53:10;;;;;;;26.20;17.95;;;10.50;99.90;;;;;;5056161;28;20032;-72
2022/04/25 01:55:36;;;;;;;26.90;18.02;;;10.50;99.90;;;;;;5056368;28;20043;-72
2022/04/25 01:58:01;;;;;;;25.73;16.88;;;10.40;99.90;;;;;;5056359;28;20025;-72
2022/04/25 02:00:27;;;;;;;27.77;17.23;;;10.40;99.90;;;;;;5054774;28;20032;-71
2022/04/25 02:02:53;;;;;;;24.13;16.33;;;10.40;99.90;;;;;;5037814;28;20024;-72
2022/04/25 02:05:18;;;;;;;23.27;16.80;;;10.40;99.90;;;;;;5037748;28;20035;-72
2022/04/25 02:07:44;;;;;;;30.45;18.02;;;10.40;99.90;;;;;;5055620;28;20483;-72
2022/04/25 02:10:10;;;;;;;21.88;16.83;;;10.40;99.90;;;;;;5055846;28;20188;-72
2022/04/25 02:12:35;;;;;;;24.67;16.60;;;10.40;99.90;;;;;;5037658;28;20021;-72
2022/04/25 02:15:02;;;;;;;27.83;16.58;;;10.40;99.90;;;;;;5037540;28;20029;-72
2022/04/25 02:17:27;;;;;;;28.13;17.17;;;10.40;99.90;;;;;;5055625;28;20028;-71
2022/04/25 02:19:53;;;;;;;31.65;18.02;;;10.40;99.90;;;;;;5055659;28;20032;-73
2022/04/25 02:22:19;;;;;;;28.45;18.15;;;10.40;99.90;;;;;;5055322;28;20505;-72
2022/04/25 02:24:45;;;;;;;30.90;17.33;;;10.40;99.90;;;;;;5037335;28;20518;-72
2022/04/25 02:27:11;;;;;;;25.92;16.50;;;10.40;99.90;;;;;;5054825;28;20041;-72
2022/04/25 02:29:43;;;;;;;32.47;18.27;;;10.30;99.90;;;;;;5055151;28;20021;-72
2022/04/25 02:32:12;;;;;;;28.10;17.83;;;10.30;99.90;;;;;;5055161;28;20032;-71
2022/04/25 02:34:38;;;;;;;28.33;17.48;;;10.30;99.90;;;;;;5055089;28;20053;-72
2022/04/25 02:37:05;;;;;;;28.77;18.08;;;10.30;99.90;;;;;;5055039;28;20021;-72
2022/04/25 02:39:30;;;;;;;28.55;16.77;;;10.30;99.90;;;;;;5054992;28;20074;-72
2022/04/25 02:41:56;;;;;;;26.40;16.15;;;10.20;99.90;;;;;;5055537;28;20100;-71
2022/04/25 02:44:22;;;;;;;28.92;16.80;;;10.20;99.90;;;;;;5054836;28;20020;-71
2022/04/25 02:46:48;;;;;;;24.50;17.17;;;10.20;99.90;;;;;;5054865;28;20025;-72
2022/04/25 02:49:13;;;;;;;33.38;18.08;;;10.20;99.90;;;;;;5054814;28;20021;-72
2022/04/25 02:51:39;;;;;;;26.55;17.08;;;10.10;99.90;;;;;;5055023;28;20028;-72
2022/04/25 02:54:05;;;;;;;27.05;16.60;;;10.10;99.90;;;;;;5054748;28;20128;-72
2022/04/25 02:56:31;;;;;;;24.23;16.67;;;10.10;99.90;;;;;;5054966;28;20032;-71
2022/04/25 02:58:56;;;;;;;26.20;16.15;;;10.10;99.90;;;;;;5055159;28;20051;-72
2022/04/25 03:01:22;;;;;;;27.38;17.48;;;10.00;99.90;;;;;;5054557;28;20398;-72
2022/04/25 03:03:47;;;;;;;34.50;17.45;;;10.00;99.90;;;;;;5054526;28;20116;-72
2022/04/25 03:06:13;;;;;;;27.75;16.63;;;9.90;99.90;;;;;;5054689;28;20032;-72
2022/04/25 03:08:39;;;;;;;28.27;16.48;;;9.90;99.90;;;;;;5054725;28;20541;-72
2022/04/25 03:11:08;;;;;;;23.60;15.93;;;9.90;99.90;;;;;;5054372;28;20083;-71
2022/04/25 03:13:34;;;;;;;24.13;16.98;;;9.90;99.90;;;;;;5054337;28;20017;-72
2022/04/25 03:16:01;;;;;;;31.52;16.80;;;9.90;99.90;;;;;;5054200;28;20081;-71
2022/04/25 03:18:29;;;;;;;23.80;16.08;;;9.90;99.90;;;;;;5054278;28;20502;-72
2022/04/25 03:20:55;;;;;;;24.75;17.75;;;9.80;99.90;;;;;;5054175;28;20082;-71
2022/04/25 03:23:22;;;;;;;25.50;16.00;;;9.80;99.90;;;;;;5054189;28;20099;-72
2022/04/25 03:25:49;;;;;;;27.70;15.65;;;9.80;99.90;;;;;;5054049;28;20072;-72
2022/04/25 03:28:15;;;;;;;24.38;14.65;;;9.70;99.90;;;;;;5054053;28;20468;-71
2022/04/25 03:30:41;;;;;;;24.85;15.68;;;9.70;99.90;;;;;;5054037;28;20025;-72
2022/04/25 03:33:10;;;;;;;22.38;15.70;;;9.60;99.90;;;;;;5054319;28;20020;-72
2022/04/25 03:35:37;;;;;;;26.25;16.55;;;9.50;99.90;;;;;;5054214;28;20029;-72
2022/04/25 03:38:02;;;;;;;28.85;17.02;;;9.40;99.90;;;;;;5054185;28;20047;-72
2022/04/25 03:40:28;;;;;;;26.30;16.15;;;9.20;99.90;;;;;;5053837;28;20463;-71
2022/04/25 03:42:56;;;;;;;30.38;18.00;;;9.10;99.90;;;;;;5053751;28;20066;-71
2022/04/25 03:45:22;;;;;;;26.23;18.05;;;9.00;99.90;;;;;;5035788;28;20092;-72
2022/04/25 03:47:48;;;;;;;28.92;17.88;;;8.90;99.90;;;;;;5053958;28;20479;-71
2022/04/25 03:50:15;;;;;;;32.13;18.42;;;8.80;99.90;;;;;;5054196;28;20024;-72
2022/04/25 03:52:42;;;;;;;31.85;18.95;;;8.70;99.90;;;;;;5053641;28;20017;-72
2022/04/25 03:57:58;;;;;;;35.67;18.15;;;8.60;99.90;;;;;;5053530;28;20075;-71
2022/04/25 04:00:24;;;;;;;26.70;16.80;;;8.50;99.90;;;;;;5053501;28;20044;-71
2022/04/25 04:02:50;;;;;;;31.83;18.80;;;8.50;99.90;;;;;;5053456;28;20021;-71
2022/04/25 04:05:17;;;;;;;30.35;18.63;;;8.50;99.90;;;;;;5035503;28;20033;-72
2022/04/25 04:07:44;;;;;;;28.20;18.75;;;8.40;99.90;;;;;;5053357;28;20017;-70
2022/04/25 04:10:10;;;;;;;30.88;19.10;;;8.40;99.90;;;;;;5053650;28;20021;-71
2022/04/25 04:12:36;;;;;;;32.03;19.60;;;8.30;99.90;;;;;;5053316;28;20085;-71
2022/04/25 04:15:03;;;;;;;30.35;18.50;;;8.30;99.90;;;;;;5053629;28;20029;-71
2022/04/25 04:17:29;;;;;;;32.72;18.00;;;8.20;99.90;;;;;;5053292;28;20035;-71
2022/04/25 04:19:55;;;;;;;29.52;17.58;;;8.20;99.90;;;;;;5053200;28;20395;-70
2022/04/25 04:22:22;;;;;;;32.40;18.08;;;8.10;99.90;;;;;;5052747;28;20108;-71
2022/04/25 04:24:48;;;;;;;30.45;17.27;;;8.10;99.90;;;;;;5053523;28;20029;-71
2022/04/25 04:27:14;;;;;;;35.45;18.58;;;8.20;99.90;;;;;;5052773;28;20411;-71
2022/04/25 04:29:41;;;;;;;27.77;17.90;;;8.10;99.90;;;;;;5053070;28;20518;-71
2022/04/25 04:32:07;;;;;;;33.45;18.27;;;8.10;99.90;;;;;;5053067;28;20438;-70
2022/04/25 04:34:34;;;;;;;37.92;18.13;;;8.10;99.90;;;;;;5035130;28;20028;-71
2022/04/25 04:37:00;;;;;;;27.35;17.52;;;8.20;99.90;;;;;;5052894;28;20541;-72
2022/04/25 04:39:26;;;;;;;33.08;18.00;;;8.10;99.90;;;;;;5035344;28;20033;-70
2022/04/25 04:41:52;;;;;;;38.15;19.13;;;8.10;99.90;;;;;;5052982;28;20368;-71
2022/04/25 04:44:17;;;;;;;36.25;18.38;;;8.10;99.90;;;;;;5052966;28;20135;-71
2022/04/25 04:46:43;;;;;;;30.38;16.73;;;8.20;99.90;;;;;;5034956;28;20079;-71
2022/04/25 04:49:09;;;;;;;30.10;17.65;;;8.20;99.90;;;;;;5035080;28;20087;-72
2022/04/25 04:51:35;;;;;;;28.13;16.77;;;8.20;99.90;;;;;;5053105;28;20028;-71
2022/04/25 04:54:02;;;;;;;31.65;17.90;;;8.10;99.90;;;;;;5052848;28;20033;-72
2022/04/25 04:56:29;;;;;;;28.67;17.27;;;8.10;99.90;;;;;;5052853;28;20017;-71
2022/04/25 04:58:55;;;;;;;29.40;16.05;;;8.10;99.90;;;;;;5052831;28;20075;-71
2022/04/25 05:01:21;;;;;;;25.90;16.00;;;8.10;99.90;;;;;;5052768;28;20550;-71
2022/04/25 05:03:47;;;;;;;30.80;16.52;;;8.10;99.90;;;;;;5052730;28;20029;-71
2022/04/25 05:06:13;;;;;;;31.73;17.60;;;8.00;99.90;;;;;;5053157;28;20029;-70
2022/04/25 05:08:39;;;;;;;29.27;16.38;;;8.00;99.90;;;;;;5052718;28;20029;-71
2022/04/25 05:11:07;;;;;;;27.13;16.25;;;7.90;99.90;;;;;;5052985;28;20021;-70
2022/04/25 05:13:33;;;;;;;33.78;17.92;;;7.90;99.90;;;;;;5052966;28;20463;-71
2022/04/25 05:15:58;;;;;;;29.27;16.20;;;7.90;99.90;;;;;;5052698;28;20025;-71
2022/04/25 05:18:24;;;;;;;30.90;16.08;;;8.00;99.90;;;;;;5052899;28;20433;-71
2022/04/25 05:20:51;;;;;;;33.28;16.65;;;8.00;99.90;;;;;;5052645;28;20035;-71
2022/04/25 05:23:16;;;;;;;34.53;16.08;;;8.10;99.90;;;;;;5034654;28;20465;-71
2022/04/25 05:25:42;;;;;;;30.23;16.70;;;8.10;99.90;;;;;;5052560;28;20120;-71
2022/04/25 05:28:08;;;;;;;29.85;15.93;;;8.20;99.90;;;;;;5052840;28;20131;-72
2022/04/25 05:30:35;;;;;;;29.88;15.70;;;8.20;99.90;;;;;;5052836;28;20021;-71
2022/04/25 05:33:03;;;;;;;29.08;17.02;;;8.30;99.90;;;;;;5052548;28;20025;-70
2022/04/25 05:35:31;;;;;;;29.35;15.68;;;8.30;99.90;;;;;;5055564;28;20029;-71
2022/04/25 05:37:57;;;;;;;30.70;15.55;;;8.40;99.90;;;;;;5038289;28;20029;-71
2022/04/25 05:40:25;;;;;;;27.88;15.35;;;8.50;99.90;;;;;;5056452;28;20085;-71
2022/04/25 05:42:52;;;;;;;25.60;14.75;;;8.70;99.90;;;;;;5038469;28;20501;-70
2022/04/25 05:45:22;;;;;;;32.78;15.50;;;8.80;99.90;;;;;;5055934;28;20625;-71
2022/04/25 05:47:48;;;;;;;33.22;15.85;;;8.90;99.90;;;;;;5056302;28;20021;-71
2022/04/25 05:53:00;;;;;;;25.02;13.63;;;9.10;99.90;;;;;;5056212;28;20032;-70
2022/04/25 05:55:28;;;;;;;25.15;14.43;;;9.30;99.90;;;;;;5055839;28;20113;-70
2022/04/25 05:57:54;;;;;;;27.88;14.40;;;9.50;99.90;;;;;;5055813;28;20052;-72
2022/04/25 06:00:20;;;;;;;24.05;12.98;;;9.70;99.90;;;;;;5055771;28;20040;-71
2022/04/25 06:02:47;;;;;;;23.83;12.45;;;10.00;99.90;;;;;;5037815;28;20037;-71
2022/04/25 06:05:15;;;;;;;22.67;11.82;;;10.20;99.90;;;;;;5055578;28;20159;-71
2022/04/25 06:07:43;;;;;;;29.50;12.85;;;10.40;99.90;;;;;;5037801;28;20036;-71
2022/04/25 06:10:13;;;;;;;21.88;12.43;;;10.50;99.90;;;;;;5055625;28;20096;-69
2022/04/25 06:12:50;;;;;;;25.48;12.00;;;10.80;99.90;;;;;;5056146;28;20029;-69
2022/04/25 06:15:30;;;;;;;23.73;11.73;;;11.10;99.90;;;;;;5055701;28;20044;-69
2022/04/25 06:17:56;;;;;;;24.58;11.73;;;11.40;99.90;;;;;;5055978;28;20028;-69
2022/04/25 06:20:22;;;;;;;19.55;11.57;;;11.60;99.90;;;;;;5055390;28;20104;-69
2022/04/25 06:22:53;;;;;;;23.40;12.20;;;12.00;99.90;;;;;;5055343;28;20057;-70
2022/04/25 06:25:18;;;;;;;24.67;11.35;;;11.90;99.90;;;;;;5055553;28;20407;-68
2022/04/25 06:27:44;;;;;;;20.27;9.65;;;12.30;99.90;;;;;;5055324;28;20025;-70
2022/04/25 06:30:11;;;;;;;17.27;8.88;;;14.30;99.90;;;;;;5055180;28;20013;-70
2022/04/25 06:32:37;;;;;;;19.77;10.43;;;15.70;99.90;;;;;;5055186;28;20025;-69
2022/04/25 06:35:02;;;;;;;15.60;9.00;;;16.90;99.90;;;;;;5055386;28;20027;-70
2022/04/25 06:37:28;;;;;;;18.35;9.05;;;17.70;99.90;;;;;;5055010;28;20064;-70
2022/04/25 06:39:54;;;;;;;15.43;8.50;;;18.20;99.90;;;;;;5055011;28;20387;-70
2022/04/25 06:42:20;;;;;;;16.20;8.75;;;18.70;99.90;;;;;;5055016;28;20075;-69
2022/04/25 06:44:46;;;;;;;16.23;8.77;;;18.80;99.90;;;;;;5055139;28;20391;-70
2022/04/25 06:47:11;;;;;;;16.65;8.60;;;18.80;99.90;;;;;;5054495;28;20032;-70
2022/04/25 06:49:38;;;;;;;16.80;8.95;;;19.20;99.90;;;;;;5055126;28;20028;-70
2022/04/25 06:52:06;;;;;;;15.07;8.23;;;19.60;99.90;;;;;;5055028;28;20021;-65
2022/04/25 06:54:33;;;;;;;16.07;8.67;;;20.10;99.90;;;;;;5053739;28;20025;-71
2022/04/25 06:56:59;;;;;;;13.98;8.00;;;19.80;99.90;;;;;;5035857;28;20136;-68
2022/04/25 06:59:25;;;;;;;15.18;8.68;;;20.30;99.90;;;;;;5051883;28;20130;-68
2022/04/25 07:01:51;;;;;;;25.52;9.70;;;19.20;99.90;;;;;;5053247;28;20449;-74
2022/04/25 07:04:17;;;;;;;20.20;9.85;;;18.30;99.90;;;;;;5051597;28;20502;-66
2022/04/25 07:06:44;;;;;;;19.88;9.27;;;17.50;99.90;;;;;;5051554;28;20499;-70
2022/04/25 07:09:13;;;;;;;20.20;10.10;;;17.20;99.90;;;;;;5050986;28;20036;-69
2022/04/25 07:11:44;;;;;;;18.98;9.25;;;16.30;99.90;;;;;;5052378;28;20100;-68
2022/04/25 07:14:14;;;;;;;20.98;9.75;;;15.70;99.90;;;;;;5053418;28;20502;-68
2022/04/25 07:16:40;;;;;;;;;;;15.40;99.90;;;;;;5052396;28;20029;-75
2022/04/25 07:19:06;;;;;;;20.30;9.88;;;15.40;99.90;;;;;;5036397;28;19909;-72
2022/04/25 07:30:06;;;;;;;15.52;7.10;;;21.30;99.90;;;;;;5031539;28;20076;-69
2022/04/25 07:32:39;;;;;;;15.30;7.28;;;22.50;99.50;;;;;;5056688;28;20463;-71
2022/04/25 07:35:06;;;;;;;11.23;6.97;;;23.70;96.20;;;;;;5073140;28;20025;-70
2022/04/25 07:37:33;;;;;;;13.95;6.93;;;24.50;94.80;;;;;;5072792;28;20395;-71
2022/04/25 07:40:02;;;;;;;13.82;7.72;;;25.20;92.70;;;;;;5074115;28;20028;-73
2022/04/25 07:42:29;;;;;;;14.90;6.63;;;25.90;90.30;;;;;;5073772;28;20052;-75
2022/04/25 07:44:55;;;;;;;15.77;7.47;;;26.00;87.30;;;;;;5072563;28;20037;-74
2022/04/25 07:47:22;;;;;;;12.20;7.25;;;26.30;87.30;;;;;;5070460;28;20445;-74
2022/04/25 07:49:48;;;;;;;14.43;6.65;;;27.10;83.40;;;;;;5071904;28;20463;-73
2022/04/25 07:52:14;;;;;;;13.40;6.30;;;27.30;79.80;;;;;;5071638;28;20108;-68
2022/04/25 07:54:39;;;;;;;14.68;7.00;;;27.40;78.40;;;;;;5069584;28;20103;-70
2022/04/25 07:57:06;;;;;;;12.00;6.05;;;27.70;78.80;;;;;;5072782;28;20047;-71
2022/04/25 07:59:32;;;;;;;13.52;6.93;;;28.40;75.10;;;;;;5073024;28;20024;-69
2022/04/25 08:01:57;;;;;;;14.55;6.97;;;28.50;78.20;;;;;;5072240;28;20013;-74
2022/04/25 08:04:23;;;;;;;14.27;6.13;;;28.70;74.80;;;;;;5073366;28;20028;-73
2022/04/25 08:06:48;;;;;;;13.90;7.03;;;29.10;73.90;;;;;;5071790;28;20486;-71
2022/04/25 08:09:16;;;;;;;11.65;5.95;;;29.50;70.00;;;;;;5073440;28;20398;-72
2022/04/25 08:11:42;;;;;;;13.82;5.75;;;29.60;72.20;;;;;;5073691;28;20387;-73
2022/04/25 08:19:39;;;;;;;10.43;5.70;;;30.00;68.00;;;;;;5073553;28;20100;-75
2022/04/25 08:22:07;;;;;;;13.20;6.32;;;30.10;69.00;;;;;;5073833;28;20028;-74
2022/04/25 08:24:33;;;;;;;12.33;6.57;;;30.50;66.90;;;;;;5073561;28;20073;-73
2022/04/25 08:26:59;;;;;;;12.93;6.57;;;30.50;67.10;;;;;;5055785;28;20291;-73
2022/04/25 08:29:25;;;;;;;12.55;6.25;;;31.00;62.80;;;;;;5053062;28;20028;-73
2022/04/25 08:31:51;;;;;;;10.25;6.40;;;30.70;64.70;;;;;;5053070;28;20476;-71
2022/04/25 08:34:17;;;;;;;10.68;6.45;;;30.50;62.40;;;;;;5050908;28;20017;-74
2022/04/25 08:36:43;;;;;;;13.98;6.57;;;30.30;62.70;;;;;;5051832;28;20029;-73
2022/04/25 08:39:09;;;;;;;13.95;6.28;;;30.40;63.60;;;;;;5053081;28;20028;-74
2022/04/25 08:41:48;;;;;;;12.05;6.50;;;28.90;64.30;;;;;;5034975;28;20032;-75
2022/04/25 08:44:18;;;;;;;14.85;6.10;;;29.10;63.60;;;;;;5051656;28;20025;-74
2022/04/25 08:46:48;;;;;;;10.02;6.15;;;29.80;64.30;;;;;;5051927;28;20124;-74
2022/04/25 08:49:16;;;;;;;11.57;5.93;;;30.50;64.80;;;;;;5050179;28;20017;-74
2022/04/25 08:51:42;;;;;;;15.00;5.82;;;30.90;62.40;;;;;;5052473;28;20024;-74
2022/04/25 08:54:08;;;;;;;12.25;6.65;;;;;;;;;;5053502;28;20017;-75
2022/04/25 08:56:39;;;;;;;12.35;6.22;;;;;;;;;;5033754;28;20064;-74
2022/04/25 08:59:06;;;;;;;9.73;5.30;;;;;;;;;;5053455;28;20067;-76
2022/04/25 09:01:33;;;;;;;10.55;5.78;;;;;;;;;;5052979;28;20029;-73
2022/04/25 09:04:01;;;;;;;13.30;6.03;;;;;;;;;;5050335;28;20033;-74
2022/04/25 09:06:26;;;;;;;15.88;6.15;;;31.40;61.70;;;;;;5052744;28;20028;-71
2022/04/25 09:08:52;;;;;;;12.63;5.97;;;29.60;63.40;;;;;;5052436;28;20036;-72
2022/04/25 09:14:03;;;;;;;14.00;6.43;;;31.50;58.70;;;;;;5056704;28;20024;-74
2022/04/25 09:16:29;;;;;;;10.15;5.43;;;32.00;57.60;;;;;;5056854;28;20142;-74
2022/04/25 09:18:55;;;;;;;10.25;5.88;;;32.30;55.90;;;;;;5055981;28;20033;-73
2022/04/25 09:21:21;;;;;;;10.15;5.25;;;32.40;55.90;;;;;;5056499;28;20039;-75
2022/04/25 09:23:47;;;;;;;12.13;5.68;;;32.30;55.80;;;;;;5056001;28;20031;-76
2022/04/25 09:26:17;;;;;;;8.90;4.60;;;;;;;;;;5055185;28;20037;-73
2022/04/25 09:28:46;;;;;;;19.92;6.65;;;;;;;;;;5056337;28;20100;-72
2022/04/25 09:31:16;;;;;;;10.57;5.43;;;;;;;;;;5056229;28;20502;-74
2022/04/25 09:33:42;;;;;;;9.85;5.22;;;;;;;;;;5056524;28;20105;-71
2022/04/25 09:36:08;;;;;;;12.43;5.88;;;;;;;;;;5055130;28;20086;-72
2022/04/25 09:38:35;;;;;;;10.52;5.13;;;;;;;;;;5055807;28;20032;-72
2022/04/25 09:41:02;;;;;;;10.00;5.20;;;;;;;;;;5056184;28;20061;-71
2022/04/25 09:43:32;;;;;;;11.38;5.50;;;;;;;;;;5055273;28;20581;-74
2022/04/25 09:46:01;;;;;;;8.13;4.90;;;;;;;;;;5038061;28;20119;-74
2022/04/25 09:48:27;;;;;;;8.63;4.80;;;;;;;;;;5055041;28;20048;-74
2022/04/25 09:51:02;;;;;;;11.18;5.10;;;;;;;;;;5054983;28;20061;-73
2022/04/25 09:53:50;;;;;;;10.60;4.65;;;;;;;;;;5052354;28;20060;-75
2022/04/25 09:56:18;;;;;;;10.73;4.60;;;;;;;;;;5053453;28;20032;-73
2022/04/25 09:58:44;;;;;;;9.95;5.50;;;;;;;;;;5055606;28;20047;-74
2022/04/25 10:01:14;;;;;;;9.15;4.88;;;;;;;;;;5055631;28;20526;-76
2022/04/25 10:03:40;;;;;;;8.88;5.20;;;;;;;;;;5054323;28;20039;-75
2022/04/25 10:06:07;;;;;;;8.73;4.50;;;;;;;;;;5055860;28;20037;-73
2022/04/25 10:08:35;;;;;;;11.15;5.40;;;;;;;;;;5054785;28;20017;-73
2022/04/25 10:11:06;;;;;;;9.35;4.55;;;;;;;;;;5055660;28;20067;-75
2022/04/25 10:13:32;;;;;;;8.82;4.82;;;;;;;;;;5055089;28;20024;-73
2022/04/25 10:15:58;;;;;;;10.23;4.88;;;;;;;;;;5055461;28;20099;-73
2022/04/25 10:18:26;;;;;;;9.02;4.53;;;;;;;;;;5053649;28;20040;-72
2022/04/25 10:20:52;;;;;;;9.60;4.50;;;;;;;;;;5054375;28;20518;-76
2022/04/25 10:23:18;;;;;;;9.02;4.70;;;;;;;;;;5055358;28;20111;-73
2022/04/25 10:25:49;;;;;;;11.52;5.00;;;;;;;;;;5053516;28;20108;-73
2022/04/25 10:28:20;;;;;;;7.97;4.80;;;;;;;;;;5055652;28;20021;-74
2022/04/25 10:30:47;;;;;;;9.57;4.68;;;;;;;;;;5054751;28;20395;-75
2022/04/25 10:33:15;;;;;;;7.63;4.33;;;;;;;;;;5054139;28;20021;-75
2022/04/25 10:35:42;;;;;;;10.95;4.82;;;;;;;;;;5034883;28;20549;-73
2022/04/25 10:38:47;;;;;;;10.23;4.75;;;;;;;;;;5055247;28;20021;-74
2022/04/25 10:44:18;;;;;;;7.80;4.30;;;;;;;;;;5055030;28;20078;-73
2022/04/25 10:47:09;;;;;;;7.35;4.10;;;;;;;;;;5054860;28;20033;-74
2022/04/25 10:49:35;;;;;;;8.02;4.25;;;;;;;;;;5032522;28;20025;-74
2022/04/25 10:52:02;;;;;;;9.43;4.25;;;;;;;;;;5055425;28;20028;-73
2022/04/25 10:54:28;;;;;;;9.02;4.28;;;;;;;;;;5054809;28;20021;-74
2022/04/25 10:57:10;;;;;;;8.25;3.78;;;;;;;;;;5054791;28;20103;-73
2022/04/25 10:59:40;;;;;;;7.65;3.85;;;;;;;;;;5055261;28;20021;-72
2022/04/25 11:02:25;;;;;;;7.40;3.90;;;;;;;;;;5054652;28;20487;-75
2022/04/25 11:05:10;;;;;;;7.57;4.20;;;;;;;;;;5036648;28;20024;-72
2022/04/25 11:07:37;;;;;;;7.85;4.15;;;;;;;;;;5054604;28;20025;-73
2022/04/25 11:10:04;;;;;;;8.70;3.40;;;;;;;;;;5054485;28;20532;-71
2022/04/25 11:12:48;;;;;;;9.32;4.50;;;;;;;;;;5054467;28;20040;-73
2022/04/25 11:15:34;;;;;;;10.70;4.13;;;;;;;;;;5054335;28;20028;-73
2022/04/25 11:18:19;;;;;;;9.15;3.97;;;;;;;;;;5054250;28;20112;-72
2022/04/25 11:20:58;;;;;;;9.00;3.47;;;;;;;;;;5054728;28;20052;-73
2022/04/25 11:23:27;;;;;;;8.55;3.53;;;;;;;;;;5054229;28;20107;-73
2022/04/25 11:25:55;;;;;;;8.35;3.90;;;;;;;;;;5053954;28;20040;-72
2022/04/25 11:28:21;;;;;;;6.70;3.25;;;;;;;;;;5036273;28;20025;-73
2022/04/25 11:31:07;;;;;;;7.38;3.78;;;;;;;;;;5054867;28;20060;-74
2022/04/25 11:33:52;;;;;;;8.73;4.05;;;;;;;;;;5053759;28;20483;-74
2022/04/25 11:36:22;;;;;;;9.38;3.53;;;33.00;56.00;;;;;;5054247;28;20046;-74
2022/04/25 11:41:35;;;;;;;8.73;3.47;;;;;;;;;;5054608;28;20150;-71
2022/04/25 11:44:02;;;;;;;8.63;3.33;;;;;;;;;;5035996;28;20029;-71
2022/04/25 11:46:28;;;;;;;8.68;4.00;;;;;;;;;;5053969;28;20541;-73
2022/04/25 11:48:55;;;;;;;7.95;3.42;;;;;;;;;;5054046;28;20029;-73
2022/04/25 11:51:31;;;;;;;6.53;3.53;;;;;;;;;;5054414;28;20025;-72
2022/04/25 11:54:03;;;;;;;10.43;4.07;;;;;;;;;;5053694;28;20029;-72
2022/04/25 11:56:29;;;;;;;8.88;3.53;;;;;;;;;;5053953;28;20148;-75
2022/04/25 11:58:56;;;;;;;7.93;3.92;;;;;;;;;;5053821;28;20029;-73
2022/04/25 12:01:35;;;;;;;9.48;3.92;;;;;;;;;;5053521;28;20025;-75
2022/04/25 12:04:20;;;;;;;9.45;3.63;;;;;;;;;;5054100;28;20036;-73
2022/04/25 12:06:53;;;;;;;7.22;3.28;;;;;;;;;;5035525;28;20103;-74
2022/04/25 12:17:38;;;;;;;5.75;2.40;;;;;;;;;;5054039;28;20071;-73
2022/04/25 12:20:05;;;;;;;9.70;3.05;;;;;;;;;;5053600;28;20079;-76
2022/04/25 12:22:32;;;;;;;9.02;3.05;;;;;;;;;;5041589;28;20048;-78
2022/04/25 12:25:11;;;;;;;9.23;3.58;;;;;;;;;;5016081;28;20143;-76
2022/04/25 12:27:37;;;;;;;7.65;3.03;;;;;;;;;;5034061;28;20376;-75
2022/04/25 12:30:07;;;;;;;12.48;3.83;;;;;;;;;;5033364;28;20022;-74
2022/04/25 12:32:33;;;;;;;;;;;;;;;;;;5044342;28;20096;-73
2022/04/25 12:34:59;;;;;;;7.43;2.60;;;;;;;;;;5053354;28;19954;-73
2022/04/25 12:37:25;;;;;;;7.07;2.85;;;;;;;;;;5052240;28;20417;-76
2022/04/25 12:40:01;;;;;;;7.72;2.70;;;;;;;;;;5033108;28;20021;-79
2022/04/25 12:42:54;;;;;;;5.32;2.90;;;;;;;;;;5040201;28;20017;-75
2022/04/25 12:45:20;;;;;;;5.95;2.72;;;;;;;;;;5059547;28;20025;-70
2022/04/25 12:47:53;;;;;;;6.50;2.88;;;;;;;;;;5058879;28;20506;-73
2022/04/25 12:50:39;;;;;;;7.13;2.97;;;;;;;;;;5059966;28;20028;-74
2022/04/25 12:53:06;;;;;;;5.68;3.03;;;;;;;;;;5057752;28;20029;-74
2022/04/25 12:55:49;;;;;;;8.10;2.72;;;;;;;;;;5059387;28;20032;-75
2022/04/25 12:58:16;;;;;;;7.28;2.60;;;;;;;;;;5056759;28;20058;-74
2022/04/25 13:00:42;;;;;;;5.72;2.40;;;;;;;;;;5058276;28;20403;-76
2022/04/25 13:03:09;;;;;;;5.45;2.40;;;;;;;;;;5058783;28;20036;-77
2022/04/25 13:05:35;;;;;;;5.57;2.70;;;;;;;;;;5058811;28;20025;-74
2022/04/25 13:08:01;;;;;;;6.45;2.63;;;;;;;;;;5060251;28;20367;-73
2022/04/25 13:10:27;;;;;;;5.95;2.72;;;;;;;;;;5057471;28;20036;-73
2022/04/25 13:12:54;;;;;;;4.68;2.53;;;;;;;;;;5058636;28;20029;-75
2022/04/25 13:15:22;;;;;;;6.85;2.80;;;;;;;;;;5059278;28;20375;-72
2022/04/25 13:17:48;;;;;;;6.45;3.03;;;;;;;;;;5059593;28;20025;-75
2022/04/25 13:20:16;;;;;;;7.55;2.60;;;;;;;;;;5058190;28;20028;-73
2022/04/25 13:22:43;;;;;;;7.90;3.33;;;;;;;;;;5057817;28;20502;-73
2022/04/25 13:25:09;;;;;;;6.57;3.28;;;;;;;;;;5058998;28;20079;-76
2022/04/25 13:27:36;;;;;;;5.88;3.20;;;;;;;;;;5059316;28;20024;-75
2022/04/25 13:30:06;;;;;;;10.27;4.40;;;;;;;;;;5059651;28;20055;-75
2022/04/25 13:32:32;;;;;;;;;;;;;;;;;;5043355;28;20068;-74
2022/04/25 13:34:58;;;;;;;5.32;2.78;;;;;;;;;;5059964;28;20263;-82
2022/04/25 13:37:25;;;;;;;9.40;3.50;;;;;;;;;;5041264;28;20044;-79
2022/04/25 13:39:52;;;;;;;9.73;3.85;;;;;;;;;;5059081;28;20021;-77
2022/04/25 13:42:18;;;;;;;6.10;2.95;;;;;;;;;;5041261;28;20029;-76
2022/04/25 13:44:44;;;;;;;6.50;3.28;;;;;;;;;;5058481;28;20064;-76
2022/04/25 13:47:10;;;;;;;9.60;3.33;;;;;;;;;;5057947;28;20075;-75
2022/04/25 13:49:37;;;;;;;6.05;2.67;;;;;;;;;;5059014;28;20021;-74
2022/04/25 13:52:04;;;;;;;6.93;2.58;;;;;;;;;;5059108;28;20021;-72
2022/04/25 13:54:30;;;;;;;10.13;3.50;;;;;;;;;;5040309;28;20518;-73
2022/04/25 13:56:57;;;;;;;6.68;2.95;;;;;;;;;;5054932;28;20406;-73